createdAt,value
2022-08-07T00:00:51.592Z,90.60
2022-08-07T00:03:18.315Z,91.30
2022-08-07T00:05:45.457Z,91.30
2022-08-07T00:08:14.418Z,91.10
2022-08-07T00:10:47.930Z,91.20
2022-08-07T00:13:24.038Z,91.60
2022-08-07T00:15:53.252Z,91.30
2022-08-07T00:18:24.458Z,91.20
2022-08-07T00:21:01.494Z,91.00
2022-08-07T00:23:30.421Z,91.50
2022-08-07T00:25:59.303Z,92.00
2022-08-07T00:28:33.807Z,91.80
2022-08-07T00:31:05.949Z,91.70
2022-08-07T00:33:33.840Z,92.80
2022-08-07T00:36:00.523Z,92.20
2022-08-07T00:38:30.932Z,92.40
2022-08-07T00:40:59.202Z,92.30
2022-08-07T00:44:00.726Z,92.60
2022-08-07T00:46:14.374Z,91.90
2022-08-07T00:48:42.013Z,92.50
2022-08-07T00:51:10.306Z,92.70
2022-08-07T00:53:38.954Z,92.50
2022-08-07T00:56:17.243Z,92.60
2022-08-07T00:58:46.864Z,92.80
2022-08-07T01:01:17.543Z,93.20
2022-08-07T01:03:55.707Z,93.20
2022-08-07T01:06:28.352Z,93.50
2022-08-07T01:08:56.219Z,93.20
2022-08-07T01:12:04.735Z,93.50
2022-08-07T01:14:10.796Z,93.80
2022-08-07T01:16:37.754Z,93.90
2022-08-07T01:19:10.916Z,93.30
2022-08-07T01:21:47.208Z,93.10
2022-08-07T01:24:21.423Z,93.40
2022-08-07T01:26:51.902Z,93.60
2022-08-07T01:29:19.606Z,93.80
2022-08-07T01:31:48.625Z,94.40
2022-08-07T01:34:17.797Z,94.20
2022-08-07T01:36:52.947Z,94.00
2022-08-07T01:39:41.322Z,93.60
2022-08-07T01:42:40.136Z,94.30
2022-08-07T01:45:03.460Z,94.00
2022-08-07T01:48:19.336Z,94.30
2022-08-07T01:50:17.198Z,94.80
2022-08-07T01:52:58.769Z,94.70
2022-08-07T01:55:34.129Z,94.80
2022-08-07T01:58:06.743Z,94.90
2022-08-07T02:01:09.713Z,95.10
2022-08-07T02:03:50.221Z,95.00
2022-08-07T02:06:31.809Z,95.90
2022-08-07T02:09:03.584Z,95.40
2022-08-07T02:12:02.876Z,95.50
2022-08-07T02:14:35.970Z,95.70
2022-08-07T02:17:07.866Z,96.00
2022-08-07T02:20:07.267Z,95.60
2022-08-07T02:22:26.134Z,95.70
2022-08-07T02:24:57.430Z,96.40
2022-08-07T02:27:26.185Z,96.30
2022-08-07T02:30:07.311Z,96.60
2022-08-07T02:32:39.477Z,96.80
2022-08-07T02:36:26.945Z,97.10
2022-08-07T02:38:14.633Z,97.00
2022-08-07T02:40:44.235Z,97.40
2022-08-07T02:43:15.843Z,98.10
2022-08-07T02:45:59.379Z,97.70
2022-08-07T02:48:29.419Z,97.60
2022-08-07T02:50:58.769Z,97.80
2022-08-07T02:53:34.074Z,98.10
2022-08-07T02:56:17.499Z,98.40
2022-08-07T02:58:51.288Z,98.20
2022-08-07T03:01:35.961Z,97.90
2022-08-07T03:04:12.773Z,98.10
2022-08-07T03:06:42.135Z,98.10
2022-08-07T03:09:11.788Z,98.20
2022-08-07T03:11:52.406Z,98.50
2022-08-07T03:14:26.180Z,98.60
2022-08-07T03:16:55.643Z,98.50
2022-08-07T03:19:23.298Z,98.90
2022-08-07T03:21:51.215Z,99.10
2022-08-07T03:24:25.961Z,99.30
2022-08-07T03:26:58.965Z,99.10
2022-08-07T03:29:31.916Z,98.80
2022-08-07T03:32:05.124Z,98.60
2022-08-07T03:34:39.518Z,98.80
2022-08-07T03:37:27.639Z,99.10
2022-08-07T03:40:13.265Z,99.30
2022-08-07T03:42:42.223Z,99.40
2022-08-07T03:45:11.186Z,99.90
2022-08-07T03:47:48.150Z,99.90
2022-08-07T03:50:23.024Z,99.90
2022-08-07T03:52:52.465Z,99.90
2022-08-07T03:55:19.242Z,99.70
2022-08-07T03:58:34.647Z,99.90
2022-08-07T04:00:35.595Z,99.90
2022-08-07T04:03:04.977Z,99.90
2022-08-07T04:05:40.603Z,99.90
2022-08-07T04:08:16.124Z,99.90
2022-08-07T04:10:53.845Z,99.90
2022-08-07T04:14:10.680Z,99.90
2022-08-07T04:16:31.597Z,99.90
2022-08-07T04:19:01.669Z,99.90
2022-08-07T04:21:33.449Z,99.90
2022-08-07T04:24:06.059Z,99.90
2022-08-07T04:26:34.758Z,99.90
2022-08-07T04:29:03.166Z,99.90
2022-08-07T04:31:38.805Z,99.90
2022-08-07T04:34:24.215Z,99.90
2022-08-07T04:36:54.697Z,99.90
2022-08-07T04:39:25.884Z,99.90
2022-08-07T04:41:52.970Z,99.90
2022-08-07T04:44:20.291Z,99.90
2022-08-07T04:47:23.526Z,99.90
2022-08-07T04:50:13.995Z,99.90
2022-08-07T04:52:53.538Z,99.90
2022-08-07T04:58:12.971Z,99.90
2022-08-07T04:59:09.073Z,99.90
2022-08-07T05:01:54.392Z,99.90
2022-08-07T05:04:47.066Z,99.90
2022-08-07T05:07:30.699Z,99.90
2022-08-07T05:10:16.263Z,99.90
2022-08-07T05:12:59.951Z,99.90
2022-08-07T05:15:35.998Z,99.90
2022-08-07T05:18:09.275Z,99.90
2022-08-07T05:20:53.633Z,99.90
2022-08-07T05:23:36.638Z,99.90
2022-08-07T05:26:13.071Z,99.90
2022-08-07T05:28:48.420Z,99.90
2022-08-07T05:31:19.098Z,99.90
2022-08-07T05:34:01.479Z,99.90
2022-08-07T05:36:35.710Z,99.90
2022-08-07T05:40:05.472Z,99.90
2022-08-07T05:42:02.583Z,99.90
2022-08-07T05:44:35.267Z,99.90
2022-08-07T05:47:18.424Z,99.90
2022-08-07T05:49:49.784Z,99.90
2022-08-07T05:52:29.765Z,99.90
2022-08-07T05:54:58.689Z,99.90
2022-08-07T05:57:34.654Z,99.90
2022-08-07T06:00:08.921Z,99.90
2022-08-07T06:02:47.646Z,99.90
2022-08-07T06:05:15.717Z,99.90
2022-08-07T06:08:14.949Z,99.90
2022-08-07T06:10:30.446Z,99.90
2022-08-07T06:12:57.250Z,99.90
2022-08-07T06:15:38.983Z,99.90
2022-08-07T06:18:12.063Z,99.90
2022-08-07T06:20:50.790Z,99.90
2022-08-07T06:24:38.150Z,99.90
2022-08-07T06:26:15.106Z,99.90
2022-08-07T06:28:57.068Z,99.90
2022-08-07T06:31:47.252Z,99.90
2022-08-07T06:34:13.585Z,99.90
2022-08-07T06:36:41.699Z,99.40
2022-08-07T06:40:17.322Z,97.50
2022-08-07T06:42:06.117Z,94.50
2022-08-07T06:44:36.868Z,91.60
2022-08-07T06:47:10.577Z,89.20
2022-08-07T06:49:50.949Z,84.40
2022-08-07T06:52:31.727Z,77.80
2022-08-07T06:55:33.271Z,73.60
2022-08-07T06:58:10.292Z,67.00
2022-08-07T07:00:39.906Z,60.90
2022-08-07T07:03:13.972Z,60.30
2022-08-07T07:06:03.343Z,57.10
2022-08-07T07:08:33.513Z,54.70
2022-08-07T07:11:14.460Z,52.90
2022-08-07T07:13:58.044Z,51.10
2022-08-07T07:16:39.172Z,50.30
2022-08-07T07:19:57.068Z,49.40
2022-08-07T07:22:11.900Z,48.10
2022-08-07T07:25:03.053Z,46.30
2022-08-07T07:28:29.829Z,47.60
2022-08-07T07:31:02.283Z,48.10
2022-08-07T07:33:32.577Z,46.80
2022-08-07T07:36:05.498Z,48.80
2022-08-07T07:38:41.740Z,47.70
2022-08-07T07:41:16.396Z,49.10
2022-08-07T07:44:13.808Z,51.00
2022-08-07T07:46:54.162Z,50.70
2022-08-07T07:50:35.275Z,51.30
2022-08-07T07:52:15.753Z,53.00
2022-08-07T07:54:50.487Z,52.90
2022-08-07T07:57:43.634Z,54.60
2022-08-07T08:00:09.215Z,55.40
2022-08-07T08:03:01.203Z,56.00
2022-08-07T08:05:32.197Z,54.60
2022-08-07T08:08:35.776Z,53.00
2022-08-07T08:10:59.531Z,54.20
2022-08-07T08:13:36.529Z,57.80
2022-08-07T08:16:14.431Z,56.30
2022-08-07T08:18:45.986Z,56.90
2022-08-07T08:22:00.567Z,57.50
2022-08-07T08:24:44.805Z,57.90
2022-08-07T08:27:16.640Z,57.80
2022-08-07T08:29:56.217Z,57.10
2022-08-07T08:32:38.554Z,56.40
2022-08-07T08:35:12.195Z,57.20
2022-08-07T08:38:00.257Z,56.20
2022-08-07T08:40:35.859Z,57.50
2022-08-07T08:43:16.006Z,57.10
2022-08-07T08:45:59.291Z,56.80
2022-08-07T08:48:44.778Z,57.90
2022-08-07T08:52:12.935Z,57.30
2022-08-07T08:54:26.390Z,55.40
2022-08-07T08:56:54.679Z,56.40
2022-08-07T08:59:41.982Z,58.70
2022-08-07T09:02:36.386Z,58.20
2022-08-07T09:05:42.979Z,58.50
2022-08-07T09:08:29.029Z,58.50
2022-08-07T09:11:25.025Z,58.00
2022-08-07T09:14:16.538Z,58.30
2022-08-07T09:16:47.616Z,57.70
2022-08-07T09:19:44.637Z,56.40
2022-08-07T09:24:53.610Z,57.30
2022-08-07T09:26:10.653Z,57.80
2022-08-07T09:30:01.766Z,58.70
2022-08-07T09:31:49.566Z,56.60
2022-08-07T09:34:26.286Z,56.90
2022-08-07T09:37:47.977Z,57.20
2022-08-07T09:40:28.866Z,54.60
2022-08-07T09:44:03.666Z,57.80
2022-08-07T09:47:52.063Z,57.60
2022-08-07T09:50:01.911Z,57.50
2022-08-07T09:52:48.649Z,56.30
2022-08-07T09:55:29.886Z,56.60
2022-08-07T09:58:20.862Z,56.10
2022-08-07T10:01:52.294Z,59.10
2022-08-07T10:04:32.349Z,56.40
2022-08-07T10:07:55.245Z,55.40
2022-08-07T10:11:16.550Z,57.40
2022-08-07T10:14:01.360Z,56.40
2022-08-07T10:17:02.809Z,54.70
2022-08-07T10:20:01.220Z,55.60
2022-08-07T10:22:36.855Z,55.30
2022-08-07T10:25:42.502Z,55.90
2022-08-07T10:28:34.905Z,53.60
2022-08-07T10:31:28.461Z,53.90
2022-08-07T10:34:18.143Z,51.10
2022-08-07T10:37:48.170Z,52.60
2022-08-07T10:40:18.109Z,53.00
2022-08-07T10:43:15.342Z,52.00
2022-08-07T10:45:58.128Z,51.90
2022-08-07T10:48:36.050Z,49.10
2022-08-07T10:51:16.757Z,49.70
2022-08-07T10:54:23.784Z,51.00
2022-08-07T10:57:11.506Z,48.90
2022-08-07T11:00:03.614Z,49.40
2022-08-07T11:02:48.993Z,48.30
2022-08-07T11:05:50.994Z,47.30
2022-08-07T11:08:45.758Z,45.10
2022-08-07T11:11:25.665Z,48.50
2022-08-07T11:14:43.774Z,49.40
2022-08-07T11:16:51.322Z,49.70
2022-08-07T11:19:42.734Z,48.70
2022-08-07T11:22:42.725Z,47.70
2022-08-07T11:25:42.523Z,47.50
2022-08-07T11:28:18.496Z,45.40
2022-08-07T11:31:08.673Z,46.60
2022-08-07T11:34:17.033Z,47.60
2022-08-07T11:37:05.029Z,47.60
2022-08-07T11:40:00.673Z,46.70
2022-08-07T11:42:37.451Z,46.30
2022-08-07T11:45:37.091Z,45.80
2022-08-07T11:48:29.669Z,45.70
2022-08-07T11:51:44.512Z,43.60
2022-08-07T11:54:34.926Z,43.40
2022-08-07T11:58:00.225Z,46.10
2022-08-07T12:00:19.099Z,45.90
2022-08-07T12:03:03.686Z,46.10
2022-08-07T12:05:59.457Z,41.90
2022-08-07T12:08:45.591Z,44.20
2022-08-07T12:12:10.450Z,44.90
2022-08-07T12:15:01.272Z,42.10
2022-08-07T12:17:39.981Z,45.10
2022-08-07T12:21:20.959Z,44.60
2022-08-07T12:24:07.006Z,44.80
2022-08-07T12:27:15.819Z,42.70
2022-08-07T12:29:59.412Z,44.50
2022-08-07T12:32:52.412Z,45.50
2022-08-07T12:35:20.665Z,44.20
2022-08-07T12:38:10.318Z,44.50
2022-08-07T12:40:47.384Z,42.30
2022-08-07T12:44:02.485Z,43.90
2022-08-07T12:46:26.454Z,42.10
2022-08-07T12:49:40.244Z,42.60
2022-08-07T12:52:18.097Z,46.50
2022-08-07T12:55:05.133Z,44.80
2022-08-07T12:57:59.237Z,44.00
2022-08-07T13:00:41.766Z,44.60
2022-08-07T13:03:59.055Z,44.00
2022-08-07T13:07:01.679Z,43.50
2022-08-07T13:10:18.871Z,42.40
2022-08-07T13:12:53.743Z,43.30
2022-08-07T13:15:29.724Z,42.80
2022-08-07T13:18:30.706Z,41.90
2022-08-07T13:21:09.514Z,41.30
2022-08-07T13:24:11.520Z,41.80
2022-08-07T13:26:53.877Z,41.90
2022-08-07T13:29:34.613Z,41.00
2022-08-07T13:32:37.628Z,41.00
2022-08-07T13:36:00.765Z,40.90
2022-08-07T13:38:49.672Z,42.20
2022-08-07T13:41:27.975Z,41.70
2022-08-07T13:44:00.275Z,44.80
2022-08-07T13:46:41.792Z,38.40
2022-08-07T13:50:33.118Z,40.50
2022-08-07T13:52:32.550Z,40.60
2022-08-07T13:55:00.739Z,40.50
2022-08-07T13:57:32.071Z,44.10
2022-08-07T14:00:08.039Z,42.60
2022-08-07T14:02:50.943Z,43.60
2022-08-07T14:05:37.149Z,43.70
2022-08-07T14:08:06.647Z,43.20
2022-08-07T14:10:42.155Z,41.00
2022-08-07T14:13:14.064Z,41.70
2022-08-07T14:15:50.856Z,42.40
2022-08-07T14:18:34.775Z,43.00
2022-08-07T14:21:20.945Z,43.50
2022-08-07T14:24:08.799Z,42.00
2022-08-07T14:26:50.262Z,43.50
2022-08-07T14:30:05.288Z,43.60
2022-08-07T14:32:12.288Z,44.00
2022-08-07T14:34:45.618Z,40.80
2022-08-07T14:37:16.355Z,43.30
2022-08-07T14:40:17.514Z,45.20
2022-08-07T14:42:35.509Z,43.90
2022-08-07T14:45:25.216Z,44.20
2022-08-07T14:48:19.670Z,43.70
2022-08-07T14:50:56.191Z,43.50
2022-08-07T14:56:29.931Z,42.10
2022-08-07T14:59:01.988Z,43.00
2022-08-07T15:01:42.751Z,44.40
2022-08-07T15:04:18.811Z,44.80
2022-08-07T15:06:47.927Z,43.50
2022-08-07T15:12:10.563Z,43.60
2022-08-07T15:15:07.868Z,44.80
2022-08-07T15:17:55.246Z,43.60
2022-08-07T15:20:54.668Z,42.10
2022-08-07T15:32:02.871Z,45.50
2022-08-07T15:34:57.219Z,46.10
2022-08-07T15:37:29.615Z,46.00
2022-08-07T15:40:33.825Z,46.70
2022-08-07T15:43:11.080Z,46.80
2022-08-07T15:46:04.528Z,43.70
2022-08-07T15:49:11.954Z,46.70
2022-08-07T15:54:16.760Z,46.10
2022-08-07T15:56:46.021Z,46.00
2022-08-07T15:59:17.314Z,42.70
2022-08-07T16:02:01.948Z,44.50
2022-08-07T16:04:33.014Z,46.10
2022-08-07T16:07:04.965Z,46.80
2022-08-07T16:09:56.055Z,46.70
2022-08-07T16:12:33.621Z,46.00
2022-08-07T16:15:54.474Z,47.70
2022-08-07T16:18:50.127Z,48.40
2022-08-07T16:21:44.440Z,48.90
2022-08-07T16:24:52.381Z,48.70
2022-08-07T16:27:41.568Z,48.70
2022-08-07T16:30:31.473Z,47.70
2022-08-07T16:34:01.374Z,49.00
2022-08-07T16:36:20.366Z,46.80
2022-08-07T16:39:33.627Z,45.30
2022-08-07T16:42:27.689Z,46.30
2022-08-07T16:46:40.761Z,46.30
2022-08-07T16:49:10.521Z,46.50
2022-08-07T16:52:01.808Z,45.80
2022-08-07T16:55:03.161Z,46.80
2022-08-07T16:58:03.970Z,46.40
2022-08-07T17:00:44.595Z,48.10
2022-08-07T17:03:17.202Z,48.90
2022-08-07T17:06:31.373Z,48.70
2022-08-07T17:10:06.648Z,49.10
2022-08-07T17:13:04.497Z,49.10
2022-08-07T17:15:56.779Z,49.40
2022-08-07T17:18:57.949Z,50.30
2022-08-07T17:21:51.378Z,50.40
2022-08-07T17:24:23.820Z,51.10
2022-08-07T17:27:08.601Z,48.80
2022-08-07T17:30:14.915Z,49.70
2022-08-07T17:32:57.756Z,50.20
2022-08-07T17:35:55.128Z,48.10
2022-08-07T17:38:50.322Z,50.70
2022-08-07T17:42:03.721Z,49.80
2022-08-07T17:44:50.045Z,50.30
2022-08-07T17:47:54.551Z,51.00
2022-08-07T17:50:47.214Z,52.30
2022-08-07T17:54:00.710Z,52.70
2022-08-07T17:56:32.663Z,51.20
2022-08-07T17:59:35.927Z,50.40
2022-08-07T18:02:17.181Z,50.30
2022-08-07T18:05:23.807Z,49.80
2022-08-07T18:08:17.621Z,50.70
2022-08-07T18:12:17.337Z,50.00
2022-08-07T18:14:37.535Z,51.30
2022-08-07T18:18:47.269Z,51.40
2022-08-07T18:21:03.693Z,49.70
2022-08-07T18:23:43.760Z,50.50
2022-08-07T18:26:23.106Z,50.20
2022-08-07T18:30:06.228Z,51.60
2022-08-07T18:32:23.445Z,53.00
2022-08-07T18:35:17.091Z,52.80
2022-08-07T18:38:55.108Z,52.40
2022-08-07T18:41:45.423Z,51.40
2022-08-07T18:44:31.176Z,51.80
2022-08-07T18:47:21.095Z,51.90
2022-08-07T18:50:31.745Z,52.70
2022-08-07T18:53:12.586Z,53.20
2022-08-07T18:56:02.102Z,53.50
2022-08-07T18:58:33.964Z,54.50
2022-08-07T19:02:17.427Z,53.60
2022-08-07T19:04:39.693Z,52.80
2022-08-07T19:07:21.891Z,52.90
2022-08-07T19:10:18.215Z,52.60
2022-08-07T19:13:11.555Z,52.70
2022-08-07T19:16:05.731Z,53.90
2022-08-07T19:19:14.266Z,57.00
2022-08-07T19:22:04.664Z,61.10
2022-08-07T19:24:44.555Z,61.90
2022-08-07T19:28:58.137Z,60.70
2022-08-07T19:30:55.744Z,57.20
2022-08-07T19:33:01.365Z,56.10
2022-08-07T19:35:37.768Z,58.10
2022-08-07T19:38:16.692Z,58.60
2022-08-07T19:40:50.571Z,59.80
2022-08-07T19:43:48.737Z,60.90
2022-08-07T19:46:26.356Z,64.00
2022-08-07T19:49:00.810Z,64.80
2022-08-07T19:51:52.477Z,65.10
2022-08-07T19:54:33.108Z,65.40
2022-08-07T19:58:03.120Z,67.80
2022-08-07T20:00:02.194Z,69.70
2022-08-07T20:02:34.498Z,68.50
2022-08-07T20:05:07.896Z,69.10
2022-08-07T20:07:47.747Z,69.20
2022-08-07T20:10:37.291Z,70.10
2022-08-07T20:13:23.881Z,70.30
2022-08-07T20:15:57.544Z,71.70
2022-08-07T20:18:32.302Z,73.40
2022-08-07T20:21:02.338Z,73.00
2022-08-07T20:23:41.599Z,74.90
2022-08-07T20:26:11.346Z,76.90
2022-08-07T20:28:44.473Z,76.60
2022-08-07T20:31:21.059Z,77.40
2022-08-07T20:33:57.675Z,79.70
2022-08-07T20:36:28.260Z,80.10
2022-08-07T20:39:00.859Z,81.30
2022-08-07T20:41:37.985Z,81.40
2022-08-07T20:44:10.504Z,77.20
2022-08-07T20:46:44.445Z,76.30
2022-08-07T20:49:59.820Z,77.40
2022-08-07T20:52:06.640Z,77.40
2022-08-07T20:54:41.614Z,78.90
2022-08-07T20:57:12.883Z,80.00
2022-08-07T21:00:06.310Z,79.80
2022-08-07T21:02:54.129Z,80.10
2022-08-07T21:05:25.697Z,79.10
2022-08-07T21:08:33.327Z,80.80
2022-08-07T21:11:10.567Z,81.60
2022-08-07T21:13:43.869Z,82.60
2022-08-07T21:16:30.227Z,84.00
2022-08-07T21:18:59.519Z,85.00
2022-08-07T21:21:33.153Z,82.60
2022-08-07T21:24:41.986Z,83.30
2022-08-07T21:27:47.101Z,82.20
2022-08-07T21:30:17.369Z,82.00
2022-08-07T21:33:14.063Z,80.30
2022-08-07T21:36:05.510Z,82.00
2022-08-07T21:38:55.513Z,82.40
2022-08-07T21:42:00.611Z,81.50
2022-08-07T21:44:40.931Z,81.50
2022-08-07T21:47:12.376Z,81.10
2022-08-07T21:50:02.900Z,81.40
2022-08-07T21:53:08.477Z,82.30
2022-08-07T21:56:05.745Z,82.70
2022-08-07T21:59:05.315Z,82.70
2022-08-07T22:02:11.496Z,83.40
2022-08-07T22:04:52.537Z,84.70
2022-08-07T22:07:31.611Z,85.30
2022-08-07T22:10:05.709Z,85.60
2022-08-07T22:12:44.569Z,85.70
2022-08-07T22:16:42.502Z,86.20
2022-08-07T22:18:07.135Z,86.30
2022-08-07T22:20:54.967Z,88.40
2022-08-07T22:23:40.538Z,88.30
2022-08-07T22:26:44.293Z,88.80
2022-08-07T22:29:17.617Z,86.60
2022-08-07T22:32:20.553Z,85.10
2022-08-07T22:34:56.105Z,83.60
2022-08-07T22:38:03.311Z,83.20
2022-08-07T22:40:19.396Z,84.00
2022-08-07T22:42:49.449Z,84.10
2022-08-07T22:46:04.026Z,83.80
2022-08-07T22:48:55.999Z,82.70
2022-08-07T22:51:52.080Z,82.60
2022-08-07T22:54:33.776Z,83.30
2022-08-07T22:57:03.577Z,82.30
2022-08-07T22:59:53.768Z,81.50
2022-08-07T23:02:23.375Z,82.30
2022-08-07T23:06:06.874Z,80.90
2022-08-07T23:08:37.324Z,82.30
2022-08-07T23:11:48.059Z,82.20
2022-08-07T23:14:41.552Z,82.50
2022-08-07T23:17:41.695Z,82.50
2022-08-07T23:20:40.631Z,81.40
2022-08-07T23:24:06.184Z,81.10
2022-08-07T23:26:23.553Z,82.10
2022-08-07T23:29:43.597Z,83.40
2022-08-07T23:34:23.958Z,82.50
2022-08-07T23:35:23.922Z,82.30
2022-08-07T23:38:36.276Z,82.70
2022-08-07T23:41:33.668Z,83.00
2022-08-07T23:44:30.345Z,82.20
2022-08-07T23:47:22.589Z,83.10
2022-08-07T23:50:07.211Z,83.40
2022-08-07T23:52:58.787Z,83.30
2022-08-07T23:56:03.929Z,83.30
2022-08-07T23:58:50.650Z,83.90
